Time;durP1;ratioP1;P1;durP2;ratioP2;P2;SDS_P1;SDS_P2;PMS_P1;PMS_P2;Temp;Humidity;BMP_temperature;BMP_pressure;BME280_temperature;BME280_humidity;BME280_pressure;Samples;Min_cycle;Max_cycle;Signal;HPM_P1;HPM_P2
2023/07/26 00:00:53;;;;;;;10.63;9.00;;;;;;;28.54;67.56;98316.66;5071493;28;20269;-66
2023/07/26 00:03:20;;;;;;;10.77;8.33;;;;;;;28.59;67.68;98327.34;5071958;28;20245;-66
2023/07/26 00:05:47;;;;;;;9.30;8.23;;;;;;;28.63;67.29;98322.03;5070182;28;20192;-66
2023/07/26 00:08:14;;;;;;;9.50;7.77;;;;;;;28.64;66.67;98318.16;5060487;28;20744;-66
2023/07/26 00:10:44;;;;;;;10.60;8.37;;;;;;;28.29;67.33;98303.28;5072013;28;20192;-66
2023/07/26 00:13:11;;;;;;;8.63;7.70;;;;;;;28.41;66.70;98306.88;5071934;28;20245;-65
2023/07/26 00:15:38;;;;;;;10.30;8.30;;;;;;;28.40;66.42;98299.78;5072201;28;20200;-66
2023/07/26 00:18:06;;;;;;;9.27;7.73;;;;;;;28.45;66.27;98306.97;5072168;28;20224;-65
2023/07/26 00:20:32;;;;;;;15.50;8.30;;;;;;;28.42;66.45;98296.75;5071648;28;20196;-66
2023/07/26 00:22:59;;;;;;;10.37;8.20;;;;;;;28.27;67.22;98295.44;5071870;28;20188;-65
2023/07/26 00:25:26;;;;;;;8.80;7.90;;;;;;;28.31;67.04;98293.63;5071912;28;20268;-66
2023/07/26 00:27:52;;;;;;;8.20;7.43;;;;;;;28.39;67.11;98291.94;5071987;28;20228;-66
2023/07/26 00:30:19;;;;;;;9.17;8.00;;;;;;;28.42;67.14;98302.22;5071753;28;20196;-67
2023/07/26 00:32:46;;;;;;;12.20;8.17;;;;;;;28.38;67.19;98296.56;5071267;28;20192;-66
2023/07/26 00:35:20;;;;;;;9.07;8.27;;;;;;;28.39;67.27;98291.94;5071647;28;20285;-66
2023/07/26 00:37:47;;;;;;;9.57;7.90;;;;;;;28.38;67.87;98285.66;5071716;28;20290;-66
2023/07/26 00:40:14;;;;;;;8.93;8.17;;;;;;;28.35;68.08;98288.28;5071040;28;20677;-66
2023/07/26 00:42:40;;;;;;;9.00;8.13;;;;;;;28.30;68.37;98272.13;5072018;28;20188;-66
2023/07/26 00:45:08;;;;;;;12.13;8.13;;;;;;;28.19;69.38;98276.44;5071574;28;20249;-66
2023/07/26 00:47:35;;;;;;;9.77;8.83;;;;;;;27.88;70.26;98273.41;5071513;28;20242;-66
2023/07/26 00:50:02;;;;;;;9.90;9.00;;;;;;;27.80;71.03;98274.25;5072022;28;20192;-66
2023/07/26 00:52:30;;;;;;;10.90;8.70;;;;;;;27.96;70.66;98275.25;5071845;28;20188;-66
2023/07/26 00:54:58;;;;;;;9.73;8.40;;;;;;;27.80;71.04;98268.78;5071809;28;20188;-66
2023/07/26 00:57:25;;;;;;;14.47;8.63;;;;;;;27.85;71.02;98265.91;5071681;28;20215;-66
2023/07/26 00:59:53;;;;;;;9.63;8.50;;;;;;;27.81;70.84;98275.88;5071687;28;20253;-65
2023/07/26 01:02:20;;;;;;;12.67;8.43;;;;;;;27.88;70.75;98278.84;5070841;28;20195;-66
2023/07/26 01:04:46;;;;;;;9.13;8.30;;;;;;;27.82;70.73;98288.41;5074905;28;20622;-66
2023/07/26 01:07:18;;;;;;;9.57;8.73;;;;;;;27.91;70.18;98270.00;5075707;28;20199;-66
2023/07/26 01:09:52;;;;;;;9.00;8.13;;;;;;;27.89;69.87;98272.28;5075439;28;20238;-65
2023/07/26 01:12:23;;;;;;;9.47;8.20;;;;;;;27.75;70.15;98277.22;5075662;28;20180;-65
2023/07/26 01:14:55;;;;;;;13.73;9.03;;;;;;;27.77;69.99;98266.75;5075563;28;20249;-67
2023/07/26 01:17:21;;;;;;;11.97;9.43;;;;;;;27.68;70.13;98285.16;5075110;28;20265;-67
2023/07/26 01:19:48;;;;;;;10.03;8.33;;;;;;;27.46;71.09;98290.97;5075259;28;20674;-68
2023/07/26 01:22:16;;;;;;;13.27;9.20;;;;;;;27.61;70.70;98280.22;5075349;28;20192;-67
2023/07/26 01:24:43;;;;;;;9.70;8.80;;;;;;;27.68;70.00;98287.91;5075273;28;20195;-68
2023/07/26 01:27:09;;;;;;;11.57;9.17;;;;;;;27.74;70.16;98286.53;5075308;28;20253;-67
2023/07/26 01:29:36;;;;;;;10.93;9.00;;;;;;;27.76;69.90;98284.28;5074799;28;20192;-68
2023/07/26 01:32:04;;;;;;;9.83;9.00;;;;;;;27.76;69.80;98285.06;5073536;28;20241;-67
2023/07/26 01:34:31;;;;;;;11.63;8.97;;;;;;;27.82;69.54;98288.41;5074679;28;20192;-67
2023/07/26 01:37:00;;;;;;;10.77;9.17;;;;;;;27.60;70.11;98286.03;5074742;28;20194;-68
2023/07/26 01:39:29;;;;;;;9.13;8.30;;;;;;;27.59;70.39;98287.97;5075068;28;20196;-68
2023/07/26 01:41:56;;;;;;;12.10;9.03;;;;;;;27.67;70.17;98283.56;5075089;28;20539;-68
2023/07/26 01:44:23;;;;;;;11.47;8.67;;;;;;;27.70;70.13;98286.41;5074628;28;20245;-68
2023/07/26 01:46:52;;;;;;;12.47;8.30;;;;;;;27.65;69.76;98294.03;5074435;28;20321;-68
2023/07/26 01:49:21;;;;;;;9.07;7.97;;;;;;;27.71;69.94;98288.00;5074672;28;20744;-68
2023/07/26 01:51:47;;;;;;;11.40;8.83;;;;;;;27.72;69.60;98289.59;5074757;28;20192;-68
2023/07/26 01:54:14;;;;;;;10.57;9.43;;;;;;;27.66;69.53;98292.88;5074861;28;20196;-68
2023/07/26 01:56:42;;;;;;;10.97;9.03;;;;;;;27.70;69.18;98299.25;5074653;28;20191;-68
2023/07/26 01:59:09;;;;;;;12.23;8.47;;;;;;;27.72;68.87;98286.09;5074371;28;20285;-68
2023/07/26 02:01:36;;;;;;;10.47;9.33;;;;;;;27.69;68.84;98289.47;5073232;28;20195;-68
2023/07/26 02:04:02;;;;;;;9.90;9.03;;;;;;;27.71;68.70;98281.75;5074335;28;20188;-67
2023/07/26 02:06:29;;;;;;;9.33;8.43;;;;;;;27.70;68.44;98288.34;5066877;28;20189;-67
2023/07/26 02:08:56;;;;;;;12.17;7.90;;;;;;;27.70;68.24;98285.63;5057688;28;20196;-68
2023/07/26 02:11:22;;;;;;;11.70;8.57;;;;;;;27.75;68.21;98294.41;5074063;28;20728;-68
2023/07/26 02:13:50;;;;;;;9.37;8.53;;;;;;;27.72;68.50;98294.28;5073899;28;20626;-67
2023/07/26 02:16:17;;;;;;;9.67;8.70;;;;;;;27.75;68.42;98288.94;5073982;28;20196;-67
2023/07/26 02:18:44;;;;;;;12.63;9.67;;;;;;;27.60;68.87;98286.03;5073956;28;20277;-68
2023/07/26 02:21:10;;;;;;;9.53;8.70;;;;;;;27.53;69.10;98280.31;5073889;28;20749;-68
2023/07/26 02:23:37;;;;;;;11.07;9.57;;;;;;;27.28;70.57;98289.53;5073955;28;20278;-67
2023/07/26 02:26:04;;;;;;;14.70;9.30;;;;;;;27.33;70.33;98286.59;5074085;28;20291;-68
2023/07/26 02:28:31;;;;;;;11.13;8.93;;;;;;;27.25;70.76;98282.81;5074288;28;20207;-67
2023/07/26 02:30:59;;;;;;;10.67;9.30;;;;;;;27.20;70.75;98293.91;5073258;28;20257;-68
2023/07/26 02:33:25;;;;;;;11.10;9.67;;;;;;;27.28;70.88;98298.50;5073736;28;20668;-68
2023/07/26 02:35:52;;;;;;;15.57;8.97;;;;;;;27.34;70.44;98305.38;5073750;28;20703;-67
2023/07/26 02:38:19;;;;;;;9.37;8.67;;;;;;;27.35;70.82;98308.88;5073930;28;20219;-68
2023/07/26 02:40:45;;;;;;;11.03;9.07;;;;;;;27.37;70.76;98303.91;5073282;28;20192;-68
2023/07/26 02:43:12;;;;;;;10.20;9.30;;;;;;;27.31;70.64;98305.25;5073897;28;20192;-68
2023/07/26 02:45:39;;;;;;;10.00;8.67;;;;;;;27.28;71.03;98311.34;5073683;28;20263;-68
2023/07/26 02:48:07;;;;;;;13.50;9.07;;;;;;;27.30;70.46;98312.63;5073688;28;20196;-68
2023/07/26 02:50:34;;;;;;;11.00;8.77;;;;;;;27.29;70.10;98307.50;5073277;28;20191;-68
2023/07/26 02:53:00;;;;;;;16.07;9.33;;;;;;;27.30;70.11;98307.16;5073270;28;20581;-68
2023/07/26 02:55:27;;;;;;;10.03;9.13;;;;;;;27.30;69.70;98301.72;5072874;28;20192;-68
2023/07/26 02:57:54;;;;;;;12.33;8.80;;;;;;;27.34;69.62;98305.38;5073146;28;20699;-68
2023/07/26 03:00:20;;;;;;;14.50;9.10;;;;;;;27.16;69.60;98297.63;5073073;28;20619;-68
2023/07/26 03:02:47;;;;;;;13.13;9.87;;;;;;;27.21;69.59;98305.63;5071955;28;20192;-68
2023/07/26 03:05:15;;;;;;;11.20;9.23;;;;;;;26.71;72.04;98302.09;5073346;28;20190;-68
2023/07/26 03:07:42;;;;;;;16.50;10.70;;;;;;;26.78;71.52;98297.72;5055369;28;20664;-68
2023/07/26 03:10:09;;;;;;;13.17;10.40;;;;;;;26.86;71.60;98287.91;5052667;28;20193;-68
2023/07/26 03:12:36;;;;;;;11.87;10.17;;;;;;;26.96;71.22;98291.03;5053955;28;20192;-69
2023/07/26 03:15:03;;;;;;;13.10;9.97;;;;;;;27.02;71.15;98288.88;5071681;28;20254;-68
2023/07/26 03:17:30;;;;;;;13.90;10.20;;;;;;;26.91;71.60;98284.97;5073086;28;20196;-68
2023/07/26 03:19:56;;;;;;;12.90;9.87;;;;;;;26.33;74.14;98279.50;5072755;28;20318;-68
2023/07/26 03:22:24;;;;;;;12.03;10.03;;;;;;;26.33;74.91;98268.63;5072630;28;20698;-69
2023/07/26 03:24:51;;;;;;;15.83;10.37;;;;;;;26.48;74.17;98271.59;5072723;28;20710;-69
2023/07/26 03:27:18;;;;;;;13.77;10.80;;;;;;;26.41;74.50;98273.22;5072014;28;20564;-69
2023/07/26 03:29:44;;;;;;;11.03;9.93;;;;;;;26.51;73.91;98268.22;5073103;28;20196;-69
2023/07/26 03:32:11;;;;;;;17.97;14.43;;;;;;;26.54;73.71;98274.91;5072864;28;20329;-68
2023/07/26 03:34:38;;;;;;;17.90;10.83;;;;;;;26.51;72.94;98270.13;5072331;28;20199;-68
2023/07/26 03:37:05;;;;;;;15.70;10.93;;;;;;;26.63;72.77;98267.53;5072899;28;20185;-69
2023/07/26 03:39:33;;;;;;;16.57;10.57;;;;;;;26.73;72.08;98261.69;5072417;28;20223;-69
2023/07/26 03:42:00;;;;;;;13.87;10.47;;;;;;;26.53;71.86;98267.84;5071213;28;20244;-69
2023/07/26 03:44:27;;;;;;;14.80;9.83;;;;;;;26.42;72.22;98258.47;5071413;28;20192;-68
2023/07/26 03:46:54;;;;;;;12.23;9.70;;;;;;;26.48;71.95;98254.44;5072530;28;20249;-68
2023/07/26 03:49:20;;;;;;;11.47;9.37;;;;;;;26.52;71.46;98260.81;5072300;28;20667;-68
2023/07/26 03:51:47;;;;;;;13.17;9.37;;;;;;;26.18;73.02;98256.34;5072479;28;20249;-68
2023/07/26 03:54:14;;;;;;;12.80;9.73;;;;;;;26.23;72.91;98258.88;5072591;28;20253;-68
2023/07/26 03:56:42;;;;;;;12.87;9.83;;;;;;;26.26;72.99;98268.31;5072427;28;20192;-68
2023/07/26 03:59:09;;;;;;;16.07;10.10;;;;;;;26.43;72.44;98262.78;5072137;28;20721;-68
2023/07/26 04:01:35;;;;;;;18.83;9.73;;;;;;;26.40;72.48;98258.81;5072422;28;20249;-68
2023/07/26 04:04:02;;;;;;;17.43;10.13;;;;;;;26.37;71.83;98258.69;5072412;28;20200;-68
2023/07/26 04:06:29;;;;;;;13.13;10.50;;;;;;;26.30;72.25;98258.38;5064719;28;20189;-68
2023/07/26 04:08:56;;;;;;;15.47;9.67;;;;;;;26.54;71.25;98264.03;5052041;28;20205;-68
2023/07/26 04:11:22;;;;;;;15.13;9.77;;;;;;;26.74;70.46;98269.53;5052205;28;20199;-68
2023/07/26 04:13:50;;;;;;;17.07;9.97;;;;;;;26.57;70.92;98274.25;5068336;28;20191;-68
2023/07/26 04:16:18;;;;;;;11.70;9.17;;;;;;;26.88;70.37;98261.09;5070953;28;20192;-68
2023/07/26 04:18:45;;;;;;;17.63;10.03;;;;;;;26.75;69.97;98259.44;5057498;28;20757;-68
2023/07/26 04:21:14;;;;;;;12.63;9.50;;;;;;;27.08;68.58;98252.13;5061664;28;20268;-68
2023/07/26 04:23:41;;;;;;;15.60;9.97;;;;;;;27.46;66.57;98260.97;5071623;28;20279;-68
2023/07/26 04:26:08;;;;;;;19.27;9.97;;;;;;;27.76;66.27;98262.44;5071693;28;20188;-68
2023/07/26 04:28:34;;;;;;;12.63;9.97;;;;;;;28.25;63.92;98255.94;5071301;28;20251;-68
2023/07/26 04:31:03;;;;;;;12.13;9.17;;;;;;;28.54;61.64;98250.28;5060486;28;20199;-68
2023/07/26 04:33:30;;;;;;;13.10;8.70;;;;;;;28.57;61.23;98255.06;5062653;28;20192;-68
2023/07/26 04:35:58;;;;;;;17.30;9.20;;;;;;;28.92;60.53;98259.66;5061431;28;20220;-68
2023/07/26 04:38:24;;;;;;;12.30;8.60;;;;;;;29.01;59.70;98243.97;5074532;28;20223;-68
2023/07/26 04:40:51;;;;;;;16.73;8.77;;;;;;;29.48;58.31;98244.13;5075451;28;20188;-68
2023/07/26 04:43:19;;;;;;;12.17;8.70;;;;;;;29.72;56.27;98246.75;5074774;28;20195;-68
2023/07/26 04:45:46;;;;;;;13.60;8.23;;;;;;;29.96;55.22;98241.16;5075293;28;20220;-68
2023/07/26 04:48:14;;;;;;;12.43;8.33;;;;;;;30.27;54.14;98245.88;5072696;28;20249;-69
2023/07/26 04:50:41;;;;;;;18.23;8.30;;;;;;;30.35;53.00;98248.44;5074560;28;20246;-68
2023/07/26 04:53:08;;;;;;;14.43;8.87;;;;;;;30.70;52.22;98260.25;5074996;28;20737;-68
2023/07/26 04:55:41;;;;;;;14.80;8.40;;;;;;;31.12;50.63;98266.69;5075135;28;20636;-68
2023/07/26 04:58:07;;;;;;;16.37;8.07;;;;;;;31.66;48.46;98261.13;5074906;28;20267;-68
2023/07/26 05:00:34;;;;;;;11.77;8.17;;;;;;;32.08;47.25;98253.69;5075019;28;20679;-69
2023/07/26 05:03:01;;;;;;;12.53;8.23;;;;;;;32.35;45.46;98267.16;5075176;28;20313;-69
2023/07/26 05:05:29;;;;;;;12.23;8.53;;;;;;;32.54;44.63;98267.06;5075382;28;20733;-69
2023/07/26 05:07:56;;;;;;;10.77;7.40;;;;;;;32.62;44.68;98257.75;5055658;28;20193;-71
2023/07/26 05:10:25;;;;;;;14.90;8.50;;;;;;;32.71;44.62;98261.03;5055282;28;20196;-69
2023/07/26 05:12:52;;;;;;;12.27;8.07;;;;;;;32.50;44.89;98277.22;5062921;28;20188;-70
2023/07/26 05:15:19;;;;;;;11.73;7.93;;;;;;;32.98;44.45;98286.63;5066313;28;20254;-70
2023/07/26 05:17:45;;;;;;;14.97;7.90;;;;;;;33.73;41.66;98306.53;5075356;28;20192;-70
2023/07/26 05:20:13;;;;;;;13.27;8.30;;;;;;;34.17;40.90;98312.13;5074996;28;20219;-70
2023/07/26 05:22:41;;;;;;;13.77;7.80;;;;;;;34.81;39.33;98325.34;5075339;28;20191;-70
2023/07/26 05:25:09;;;;;;;20.33;8.13;;;;;;;35.61;37.96;98327.81;5073915;28;20196;-70
2023/07/26 05:27:35;;;;;;;11.57;7.68;;;;;;;35.98;35.69;98331.94;5074297;28;20200;-71
2023/07/26 05:30:02;;;;;;;14.45;8.30;;;;;;;36.55;34.81;98324.53;5074303;28;20736;-69
2023/07/26 05:32:29;;;;;;;9.23;7.30;;;;;;;37.07;34.98;98321.72;5074650;28;20203;-72
2023/07/26 05:34:56;;;;;;;9.60;7.03;;;;;;;37.56;33.50;98326.38;5074287;28;20236;-72
2023/07/26 05:37:24;;;;;;;15.85;8.25;;;;;;;37.73;32.74;98336.66;5073842;28;20180;-71
2023/07/26 05:39:53;;;;;;;13.02;7.57;;;;;;;37.64;32.88;98335.50;5072817;28;20220;-70
2023/07/26 05:42:19;;;;;;;17.75;8.02;;;;;;;37.82;32.79;98339.75;5072146;28;20188;-71
2023/07/26 05:44:46;;;;;;;8.93;8.02;;;;;;;37.84;32.10;98342.13;5072790;28;20188;-73
2023/07/26 05:47:14;;;;;;;8.63;7.45;;;;;;;37.87;32.64;98342.09;5073393;28;20196;-72
2023/07/26 05:49:42;;;;;;;15.85;7.55;;;;;;;38.19;32.14;98348.31;5073355;28;20712;-73
2023/07/26 05:52:08;;;;;;;13.35;7.95;;;;;;;38.51;31.37;98326.72;5072386;28;20207;-70
2023/07/26 05:54:35;;;;;;;10.77;8.00;;;;;;;38.31;31.64;98322.06;5071933;28;20200;-72
2023/07/26 05:57:04;;;;;;;10.18;7.45;;;;;;;38.37;31.29;98326.75;5073418;28;20191;-75
2023/07/26 05:59:31;;;;;;;13.27;8.50;;;;;;;38.34;31.22;98327.59;5073406;28;20212;-72
2023/07/26 06:01:58;;;;;;;9.88;7.97;;;;;;;38.61;31.37;98323.03;5072647;28;20199;-75
2023/07/26 06:04:25;;;;;;;18.00;8.27;;;;;;;38.62;31.64;98310.72;5073477;28;20897;-71
2023/07/26 06:06:51;;;;;;;14.13;8.18;;;;;;;38.18;31.41;98305.13;5072822;28;20336;-73
2023/07/26 06:09:20;;;;;;;10.95;7.88;;;;;;;38.44;31.97;98296.19;5073219;28;20548;-74
2023/07/26 06:11:47;;;;;;;9.05;7.38;;;;;;;38.83;30.87;98299.47;5073084;28;20667;-72
2023/07/26 06:14:15;;;;;;;12.65;7.75;;;;;;;38.56;30.84;98289.38;5072332;28;20253;-72
2023/07/26 06:16:42;;;;;;;8.32;7.70;;;;;;;38.99;30.77;98291.38;5071423;28;20703;-72
2023/07/26 06:19:09;;;;;;;13.18;7.68;;;;;;;39.40;29.88;98292.13;5069805;28;20277;-70
2023/07/26 06:21:36;;;;;;;12.40;7.57;;;;;;;39.36;29.84;98291.38;5073158;28;20257;-67
2023/07/26 06:24:03;;;;;;;11.98;7.50;;;;;;;39.90;29.49;98298.66;5073138;28;20250;-71
2023/07/26 06:26:29;;;;;;;14.25;7.57;;;;;;;39.89;29.40;98294.28;5071169;28;20196;-71
2023/07/26 06:28:56;;;;;;;12.90;7.82;;;;;;;39.53;29.53;98287.63;5073310;28;20253;-73
2023/07/26 06:31:24;;;;;;;12.55;7.90;;;;;;;39.51;29.58;98292.03;5073108;28;20188;-72
2023/07/26 06:33:51;;;;;;;7.25;6.55;;;;;;;38.96;29.85;98297.75;5072659;28;20677;-70
2023/07/26 06:36:17;;;;;;;10.63;7.55;;;;;;;39.37;29.56;98290.19;5073334;28;20364;-72
2023/07/26 06:38:44;;;;;;;11.38;7.35;;;;;;;39.32;29.45;98273.16;5072852;28;20195;-72
2023/07/26 06:41:11;;;;;;;12.10;6.97;;;;;;;39.18;29.84;98276.06;5071033;28;20196;-71
2023/07/26 06:43:38;;;;;;;11.80;7.95;;;;;;;39.26;29.50;98270.03;5072249;28;20196;-71
2023/07/26 06:46:05;;;;;;;9.60;7.32;;;;;;;39.15;29.77;98261.03;5073090;28;20246;-68
2023/07/26 06:48:33;;;;;;;14.02;8.13;;;;;;;38.91;30.37;98255.75;5071076;28;20556;-72
2023/07/26 06:51:03;;;;;;;14.77;8.07;;;;;;;38.81;30.68;98249.06;5070332;28;20249;-70
2023/07/26 06:53:30;;;;;;;11.48;7.50;;;;;;;37.79;32.10;98229.66;5052765;28;20196;-72
2023/07/26 06:55:58;;;;;;;14.40;7.90;;;;;;;38.10;31.88;98234.22;5068626;28;20252;-72
2023/07/26 06:58:25;;;;;;;11.75;8.05;;;;;;;38.25;32.24;98230.13;5066434;28;20192;-70
2023/07/26 07:00:52;;;;;;;11.68;7.90;;;;;;;38.56;31.44;98234.66;5067525;28;20212;-71
2023/07/26 07:03:18;;;;;;;12.38;8.07;;;;;;;38.10;32.17;98223.13;5065402;28;20576;-69
2023/07/26 07:05:46;;;;;;;10.15;7.97;;;;;;;38.02;32.20;98227.13;5066925;28;20220;-69
2023/07/26 07:08:13;;;;;;;12.30;8.13;;;;;;;37.52;32.75;98231.38;5066352;28;20192;-69
2023/07/26 07:10:40;;;;;;;12.32;7.38;;;;;;;37.85;32.37;98225.25;5067599;28;20254;-71
2023/07/26 07:13:07;;;;;;;11.05;7.85;;;;;;;38.08;32.30;98222.72;5067044;28;20203;-71
2023/07/26 07:15:34;;;;;;;9.02;8.13;;;;;;;37.53;33.35;98216.31;5068446;28;20721;-71
2023/07/26 07:18:00;;;;;;;10.32;8.02;;;;;;;36.86;33.96;98215.75;5067522;28;20820;-69
2023/07/26 07:20:27;;;;;;;12.57;7.57;;;;;;;37.06;33.76;98214.91;5068687;28;20220;-71
2023/07/26 07:22:55;;;;;;;13.73;8.00;;;;;;;37.08;34.44;98211.75;5069190;28;20195;-71
2023/07/26 07:25:22;;;;;;;16.13;7.80;;;;;;;37.49;33.55;98210.00;5068047;28;20191;-71
2023/07/26 07:27:48;;;;;;;15.20;8.70;;;;;;;37.22;34.04;98218.06;5068619;28;20195;-71
2023/07/26 07:30:16;;;;;;;13.40;7.85;;;;;;;37.42;33.24;98215.56;5068297;28;20204;-70
2023/07/26 07:32:42;;;;;;;12.32;7.80;;;;;;;37.36;33.44;98213.63;5068658;28;20200;-71
2023/07/26 07:35:09;;;;;;;9.60;8.23;;;;;;;37.65;33.15;98196.47;5068726;28;20289;-72
2023/07/26 07:37:36;;;;;;;13.57;7.40;;;;;;;38.02;32.42;98204.94;5069440;28;20196;-72
2023/07/26 07:40:07;;;;;;;11.27;8.10;;;;;;;37.43;34.05;98205.28;5069784;28;20273;-72
2023/07/26 07:42:34;;;;;;;16.10;9.05;;;;;;;37.30;34.02;98202.16;5069643;28;20188;-72
2023/07/26 07:45:01;;;;;;;11.20;7.70;;;;;;;37.51;34.25;98206.81;5068994;28;20246;-73
2023/07/26 07:47:27;;;;;;;11.20;8.18;;;;;;;37.46;33.51;98174.78;5068712;28;20195;-68
2023/07/26 07:49:54;;;;;;;11.85;8.00;;;;;;;37.76;33.40;98196.41;5069317;28;20578;-69
2023/07/26 07:52:21;;;;;;;15.82;8.75;;;;;;;38.13;33.03;98205.66;5067740;28;20199;-68
2023/07/26 07:54:47;;;;;;;15.02;8.02;;;;;;;38.44;32.09;98204.59;5067174;28;20738;-67
2023/07/26 07:57:17;;;;;;;13.18;7.93;;;;;;;38.46;32.46;98195.84;5060277;28;20734;-67
2023/07/26 07:59:44;;;;;;;18.15;7.95;;;;;;;38.73;31.83;98194.81;5067401;28;20215;-67
2023/07/26 08:02:10;;;;;;;13.07;8.48;;;;;;;38.99;31.29;98202.47;5065290;28;20192;-67
2023/07/26 08:04:38;;;;;;;19.00;9.10;;;;;;;39.29;30.74;98198.94;5066091;28;20741;-67
2023/07/26 08:07:05;;;;;;;12.55;8.88;;;;;;;39.63;30.44;98197.69;5067582;28;20249;-67
2023/07/26 08:09:32;;;;;;;12.18;7.95;;;;;;;39.73;30.20;98198.75;5068133;28;20194;-66
2023/07/26 08:11:59;;;;;;;16.88;8.32;;;;;;;39.87;29.40;98182.66;5066060;28;20249;-67
2023/07/26 08:14:27;;;;;;;18.13;8.00;;;;;;;39.64;30.39;98179.78;5066746;28;20192;-67
2023/07/26 08:16:54;;;;;;;19.23;7.95;;;;;;;39.56;30.15;98183.88;5067100;28;20196;-66
2023/07/26 08:19:20;;;;;;;12.55;8.30;;;;;;;39.83;30.02;98170.78;5066234;28;20250;-66
2023/07/26 08:21:47;;;;;;;15.98;8.27;;;;;;;40.06;29.85;98167.25;5066962;28;20195;-66
2023/07/26 08:24:14;;;;;;;16.58;8.35;;;;;;;40.03;29.68;98171.66;5067074;28;20255;-66
2023/07/26 08:26:40;;;;;;;11.65;8.75;;;;;;;39.78;29.95;98168.50;5067146;28;20733;-66
2023/07/26 08:29:07;;;;;;;12.63;7.68;;;;;;;39.98;29.83;98163.81;5067608;28;20287;-66
2023/07/26 08:31:35;;;;;;;16.13;8.23;;;;;;;40.15;30.14;98168.28;5067799;28;20238;-67
2023/07/26 08:34:02;;;;;;;14.57;8.55;;;;;;;40.27;29.55;98159.34;5067480;28;20192;-67
2023/07/26 08:36:29;;;;;;;13.65;8.13;;;;;;;40.48;29.39;98136.69;5066826;28;20223;-65
2023/07/26 08:38:55;;;;;;;14.30;8.18;;;;;;;40.66;28.90;98141.97;5067187;28;20242;-64
2023/07/26 08:41:22;;;;;;;10.60;8.57;;;;;;;40.82;28.88;98145.59;5067529;28;20231;-67
2023/07/26 08:43:52;;;;;;;12.43;9.23;;;;;;;40.73;29.21;98139.00;5067643;28;20204;-66
2023/07/26 08:46:19;;;;;;;11.40;8.20;;;;;;;40.91;29.40;98137.44;5068046;28;20281;-67
2023/07/26 08:48:48;;;;;;;14.00;8.45;;;;;;;40.99;29.40;98141.66;5067982;28;20199;-66
2023/07/26 08:51:15;;;;;;;13.43;8.27;;;;;;;40.95;28.66;98135.38;5067340;28;20196;-65
2023/07/26 08:53:45;;;;;;;17.50;9.07;;;;;;;41.14;28.58;98136.59;5067068;28;20549;-65
2023/07/26 08:56:14;;;;;;;9.98;7.97;;;;;;;41.08;28.01;98130.72;5068223;28;20835;-65
2023/07/26 08:58:41;;;;;;;14.65;8.07;;;;;;;41.11;27.63;98134.69;5070949;28;20195;-66
2023/07/26 09:01:09;;;;;;;17.60;8.13;;;;;;;40.91;28.46;98120.72;5070694;28;20596;-65
2023/07/26 09:03:36;;;;;;;16.60;8.15;;;;;;;40.67;28.93;98119.22;5071077;28;20282;-66
2023/07/26 09:06:08;;;;;;;17.67;9.20;;;;;;;40.65;29.20;98124.44;5069298;28;20196;-66
2023/07/26 09:08:35;;;;;;;11.10;7.85;;;;;;;40.69;29.37;98116.81;5059026;28;20184;-65
2023/07/26 09:11:03;;;;;;;15.23;8.38;;;;;;;40.85;29.00;98113.28;5070944;28;20199;-65
2023/07/26 09:13:30;;;;;;;14.43;8.43;;;;;;;40.62;28.69;98108.59;5070388;28;20192;-65
2023/07/26 09:16:00;;;;;;;22.98;8.55;;;;;;;40.74;29.11;98110.72;5069555;28;20253;-65
2023/07/26 09:18:28;;;;;;;13.27;8.27;;;;;;;40.70;28.51;98114.81;5070025;28;20254;-64
2023/07/26 09:21:02;;;;;;;15.43;8.38;;;;;;;40.89;28.88;98106.44;5070334;28;20630;-65
2023/07/26 09:23:30;;;;;;;11.38;8.38;;;;;;;41.09;28.64;98109.22;5063745;28;20211;-65
2023/07/26 09:25:56;;;;;;;10.75;7.97;;;;;;;40.98;28.44;98105.84;5072926;28;20622;-64
2023/07/26 09:28:24;;;;;;;13.70;8.10;;;;;;;41.03;28.37;98110.97;5073612;28;20617;-65
2023/07/26 09:30:51;;;;;;;10.20;8.38;;;;;;;40.99;27.82;98099.09;5074613;28;20203;-64
2023/07/26 09:33:18;;;;;;;15.35;8.48;;;;;;;41.05;28.13;98108.53;5073950;28;20257;-65
2023/07/26 09:35:46;;;;;;;15.10;8.23;;;;;;;41.13;28.31;98111.94;5074328;28;20704;-64
2023/07/26 09:38:14;;;;;;;10.57;7.60;;;;;;;40.52;29.03;98101.22;5074634;28;20196;-64
2023/07/26 09:40:42;;;;;;;11.63;7.57;;;;;;;40.46;29.34;98111.25;5074051;28;20223;-65
2023/07/26 09:43:09;;;;;;;20.75;8.93;;;;;;;40.62;28.98;98097.44;5073850;28;20569;-65
2023/07/26 09:45:36;;;;;;;9.40;8.18;;;;;;;40.56;29.18;98099.13;5062947;28;20675;-64
2023/07/26 09:48:07;;;;;;;12.18;8.18;;;;;;;40.56;28.85;98090.78;5073946;28;20758;-69
2023/07/26 09:50:35;;;;;;;11.80;7.93;;;;;;;40.77;29.17;98097.94;5074205;28;20248;-69
2023/07/26 09:53:04;;;;;;;9.75;8.02;;;;;;;40.90;28.68;98096.88;5073838;28;20278;-71
2023/07/26 09:55:31;;;;;;;15.13;7.95;;;;;;;40.90;28.56;98088.50;5072609;28;20253;-69
2023/07/26 09:58:00;;;;;;;14.98;9.25;;;;;;;40.81;28.72;98077.16;5073748;28;20287;-69
2023/07/26 10:00:28;;;;;;;17.90;8.75;;;;;;;40.61;28.67;98073.59;5074054;28;20717;-69
2023/07/26 10:02:57;;;;;;;12.45;8.15;;;;;;;40.67;28.51;98074.66;5073667;28;20195;-69
2023/07/26 10:05:26;;;;;;;18.50;8.13;;;;;;;40.93;27.76;98065.34;5073263;28;20192;-68
2023/07/26 10:07:52;;;;;;;17.60;9.07;;;;;;;41.08;27.98;98069.41;5073273;28;20224;-69
2023/07/26 10:10:21;;;;;;;17.05;8.65;;;;;;;41.05;28.56;98069.50;5073638;28;20717;-68
2023/07/26 10:12:52;;;;;;;12.40;8.30;;;;;;;41.16;27.38;98064.47;5073231;28;20203;-69
2023/07/26 10:15:21;;;;;;;13.68;8.25;;;;;;;41.20;27.62;98064.38;5073447;28;20224;-69
2023/07/26 10:17:48;;;;;;;18.30;7.70;;;;;;;41.21;27.45;98046.44;5068352;28;20223;-68
2023/07/26 10:20:16;;;;;;;13.45;8.05;;;;;;;41.08;27.18;98051.13;5073453;28;20269;-69
2023/07/26 10:22:43;;;;;;;21.38;9.43;;;;;;;40.56;28.04;98043.44;5073288;28;20192;-69
2023/07/26 10:25:11;;;;;;;14.15;8.90;;;;;;;40.29;28.18;98050.38;5073880;28;20196;-68
2023/07/26 10:27:39;;;;;;;14.48;8.40;;;;;;;40.05;28.68;98046.78;5073475;28;20250;-70
2023/07/26 10:30:07;;;;;;;11.85;8.50;;;;;;;40.23;28.12;98047.28;5073075;28;20617;-69
2023/07/26 10:32:40;;;;;;;20.90;8.77;;;;;;;40.30;29.09;98040.81;5073396;28;20594;-70
2023/07/26 10:35:07;;;;;;;15.65;8.80;;;;;;;40.46;28.67;98038.84;5072692;28;20315;-69
2023/07/26 10:37:34;;;;;;;14.27;8.30;;;;;;;40.60;28.37;98035.84;5073186;28;20188;-70
2023/07/26 10:40:29;;;;;;;18.70;9.35;;;;;;;40.81;27.94;98031.78;5072113;28;20196;-73
2023/07/26 10:42:56;;;;;;;14.38;8.93;;;;;;;41.01;27.25;98027.00;5072707;28;20192;-70
2023/07/26 10:45:40;;;;;;;11.00;8.15;;;;;;;41.30;26.72;98035.50;5072617;28;20625;-71
2023/07/26 10:48:14;;;;;;;14.15;8.40;;;;;;;41.41;26.66;98036.00;5072072;28;20180;-69
2023/07/26 10:50:41;;;;;;;15.95;7.90;;;;;;;41.42;26.26;98024.44;5072677;28;20598;-70
2023/07/26 10:53:30;;;;;;;11.15;8.07;;;;;;;41.58;26.97;98015.28;5071357;28;20235;-70
2023/07/26 10:56:08;;;;;;;15.55;7.95;;;;;;;41.41;26.29;98008.13;5069359;28;20659;-69
2023/07/26 10:58:35;;;;;;;12.13;8.65;;;;;;;41.25;27.14;97999.75;5073162;28;20226;-70
2023/07/26 11:01:03;;;;;;;12.13;7.60;;;;;;;41.42;26.69;97995.81;5072693;28;20227;-69
2023/07/26 11:03:31;;;;;;;12.25;8.73;;;;;;;41.57;26.34;97999.78;5072177;28;20663;-69
2023/07/26 11:05:58;;;;;;;16.65;8.35;;;;;;;41.70;26.29;97989.47;5069150;28;20239;-69
2023/07/26 11:08:42;;;;;;;15.82;8.32;;;;;;;41.90;26.35;97990.16;5051016;28;20200;-70
2023/07/26 11:11:09;;;;;;;17.52;10.52;;;;;;;41.75;26.48;97983.38;5052886;28;20189;-69
2023/07/26 11:13:37;;;;;;;9.90;8.55;;;;;;;41.49;26.62;97978.88;5052032;28;20193;-69
2023/07/26 11:16:03;;;;;;;12.05;8.48;;;;;;;41.54;25.79;97978.34;5052164;28;20201;-70
2023/07/26 11:18:39;;;;;;;14.65;7.85;;;;;;;41.63;26.22;97975.72;5052221;28;20258;-68
2023/07/26 11:21:06;;;;;;;13.40;8.52;;;;;;;41.67;24.92;97970.84;5052517;28;20300;-69
2023/07/26 11:23:33;;;;;;;15.23;8.18;;;;;;;41.62;24.75;97963.78;5052383;28;20266;-69
2023/07/26 11:26:01;;;;;;;13.55;8.40;;;;;;;41.67;25.13;97948.53;5052061;28;20281;-70
2023/07/26 11:28:31;;;;;;;21.17;9.30;;;;;;;41.61;25.48;97945.47;5071493;28;20200;-69